sensor_id;sensor_type;location;lat;lon;timestamp;pressure;altitude;pressure_sealevel;temperature;humidity
4398;BME280;2213;49.720;7.296;2024-02-26T00:00:31;96101.66;;;6.79;100.00
4398;BME280;2213;49.720;7.296;2024-02-26T00:03:02;96102.47;;;6.80;100.00
4398;BME280;2213;49.720;7.296;2024-02-26T00:05:30;96112.25;;;6.78;100.00
4398;BME280;2213;49.720;7.296;2024-02-26T00:08:00;96115.44;;;6.80;100.00
4398;BME280;2213;49.720;7.296;2024-02-26T00:10:31;96106.78;;;6.86;100.00
4398;BME280;2213;49.720;7.296;2024-02-26T00:13:00;96108.53;;;6.92;100.00
4398;BME280;2213;49.720;7.296;2024-02-26T00:15:28;96115.41;;;6.86;100.00
4398;BME280;2213;49.720;7.296;2024-02-26T00:17:57;96115.16;;;6.88;100.00
4398;BME280;2213;49.720;7.296;2024-02-26T00:20:26;96120.09;;;6.96;100.00
4398;BME280;2213;49.720;7.296;2024-02-26T00:22:56;96126.09;;;6.96;100.00
4398;BME280;2213;49.720;7.296;2024-02-26T00:25:26;96123.94;;;6.93;100.00
4398;BME280;2213;49.720;7.296;2024-02-26T00:27:55;96125.94;;;6.91;100.00
4398;BME280;2213;49.720;7.296;2024-02-26T00:30:24;96133.94;;;6.90;100.00
4398;BME280;2213;49.720;7.296;2024-02-26T00:32:53;96144.50;;;6.95;100.00
4398;BME280;2213;49.720;7.296;2024-02-26T00:35:21;96143.50;;;6.96;100.00
4398;BME280;2213;49.720;7.296;2024-02-26T00:37:50;96146.50;;;6.93;100.00
4398;BME280;2213;49.720;7.296;2024-02-26T00:40:19;96145.34;;;6.89;100.00
4398;BME280;2213;49.720;7.296;2024-02-26T00:42:48;96136.16;;;6.86;100.00
4398;BME280;2213;49.720;7.296;2024-02-26T00:45:17;96131.19;;;6.85;100.00
4398;BME280;2213;49.720;7.296;2024-02-26T00:47:46;96128.56;;;6.85;100.00
4398;BME280;2213;49.720;7.296;2024-02-26T00:50:16;96125.13;;;6.91;100.00
4398;BME280;2213;49.720;7.296;2024-02-26T00:52:44;96126.22;;;6.83;100.00
4398;BME280;2213;49.720;7.296;2024-02-26T00:55:13;96126.03;;;6.78;100.00
4398;BME280;2213;49.720;7.296;2024-02-26T00:57:42;96125.41;;;6.83;100.00
4398;BME280;2213;49.720;7.296;2024-02-26T01:00:14;96126.84;;;6.79;100.00
4398;BME280;2213;49.720;7.296;2024-02-26T01:02:42;96122.81;;;6.83;100.00
4398;BME280;2213;49.720;7.296;2024-02-26T01:05:14;96117.19;;;6.86;100.00
4398;BME280;2213;49.720;7.296;2024-02-26T01:07:43;96126.09;;;6.96;100.00
4398;BME280;2213;49.720;7.296;2024-02-26T01:10:12;96119.94;;;6.91;100.00
4398;BME280;2213;49.720;7.296;2024-02-26T01:12:41;96137.38;;;6.84;100.00
4398;BME280;2213;49.720;7.296;2024-02-26T01:15:10;96128.44;;;6.80;100.00
4398;BME280;2213;49.720;7.296;2024-02-26T01:17:40;96122.81;;;6.83;100.00
4398;BME280;2213;49.720;7.296;2024-02-26T01:20:10;96120.59;;;6.86;100.00
4398;BME280;2213;49.720;7.296;2024-02-26T01:22:38;96115.41;;;6.86;100.00
4398;BME280;2213;49.720;7.296;2024-02-26T01:25:08;96117.44;;;6.78;100.00
4398;BME280;2213;49.720;7.296;2024-02-26T01:27:37;96113.91;;;6.72;100.00
4398;BME280;2213;49.720;7.296;2024-02-26T01:30:09;96118.66;;;6.75;100.00
4398;BME280;2213;49.720;7.296;2024-02-26T01:32:39;96114.28;;;6.76;100.00
4398;BME280;2213;49.720;7.296;2024-02-26T01:35:09;96117.44;;;6.78;100.00
4398;BME280;2213;49.720;7.296;2024-02-26T01:37:39;96122.22;;;6.81;100.00
4398;BME280;2213;49.720;7.296;2024-02-26T01:40:10;96123.66;;;6.77;100.00
4398;BME280;2213;49.720;7.296;2024-02-26T01:42:39;96117.34;;;6.66;100.00
4398;BME280;2213;49.720;7.296;2024-02-26T01:45:15;96119.72;;;6.68;100.00
4398;BME280;2213;49.720;7.296;2024-02-26T01:47:52;96115.88;;;6.77;100.00
4398;BME280;2213;49.720;7.296;2024-02-26T01:50:22;96113.66;;;6.74;100.00
4398;BME280;2213;49.720;7.296;2024-02-26T01:52:52;96117.47;;;6.71;100.00
4398;BME280;2213;49.720;7.296;2024-02-26T01:55:24;96111.53;;;6.64;100.00
4398;BME280;2213;49.720;7.296;2024-02-26T01:57:55;96122.16;;;6.63;100.00
4398;BME280;2213;49.720;7.296;2024-02-26T02:00:24;96124.91;;;6.68;100.00
4398;BME280;2213;49.720;7.296;2024-02-26T02:02:54;96122.47;;;6.73;100.00
4398;BME280;2213;49.720;7.296;2024-02-26T02:05:24;96120.09;;;6.71;100.00
4398;BME280;2213;49.720;7.296;2024-02-26T02:07:54;96115.31;;;6.68;100.00
4398;BME280;2213;49.720;7.296;2024-02-26T02:10:23;96117.53;;;6.65;100.00
4398;BME280;2213;49.720;7.296;2024-02-26T02:12:53;96114.94;;;6.65;100.00
4398;BME280;2213;49.720;7.296;2024-02-26T02:15:21;96122.16;;;6.56;100.00
4398;BME280;2213;49.720;7.296;2024-02-26T02:17:50;96109.56;;;6.59;100.00
4398;BME280;2213;49.720;7.296;2024-02-26T02:20:31;96106.97;;;6.59;100.00
4398;BME280;2213;49.720;7.296;2024-02-26T02:23:02;96102.41;;;6.55;100.00
4398;BME280;2213;49.720;7.296;2024-02-26T02:25:30;96104.00;;;6.56;100.00
4398;BME280;2213;49.720;7.296;2024-02-26T02:27:59;96104.59;;;6.58;100.00
4398;BME280;2213;49.720;7.296;2024-02-26T02:30:29;96099.19;;;6.59;100.00
4398;BME280;2213;49.720;7.296;2024-02-26T02:33:00;96099.34;;;6.65;100.00
4398;BME280;2213;49.720;7.296;2024-02-26T02:35:30;96095.91;;;6.71;100.00
4398;BME280;2213;49.720;7.296;2024-02-26T02:37:59;96094.13;;;6.71;100.00
4398;BME280;2213;49.720;7.296;2024-02-26T02:40:27;96098.94;;;6.68;100.00
4398;BME280;2213;49.720;7.296;2024-02-26T02:42:56;96092.56;;;6.64;100.00
4398;BME280;2213;49.720;7.296;2024-02-26T02:45:24;96091.38;;;6.59;100.00
4398;BME280;2213;49.720;7.296;2024-02-26T02:47:53;96096.19;;;6.63;100.00
4398;BME280;2213;49.720;7.296;2024-02-26T02:50:21;96088.78;;;6.66;100.00
4398;BME280;2213;49.720;7.296;2024-02-26T02:52:51;96093.78;;;6.61;100.00
4398;BME280;2213;49.720;7.296;2024-02-26T02:55:20;96099.94;;;6.67;100.00
4398;BME280;2213;49.720;7.296;2024-02-26T02:57:48;96093.75;;;6.68;100.00
4398;BME280;2213;49.720;7.296;2024-02-26T03:00:17;96098.34;;;6.66;100.00
4398;BME280;2213;49.720;7.296;2024-02-26T03:02:46;96079.00;;;6.62;100.00
4398;BME280;2213;49.720;7.296;2024-02-26T03:05:15;96081.75;;;6.67;100.00
4398;BME280;2213;49.720;7.296;2024-02-26T03:07:43;96076.97;;;6.64;100.00
4398;BME280;2213;49.720;7.296;2024-02-26T03:10:13;96081.38;;;6.63;100.00
4398;BME280;2213;49.720;7.296;2024-02-26T03:12:42;96077.78;;;6.64;100.00
4398;BME280;2213;49.720;7.296;2024-02-26T03:15:11;96076.22;;;6.56;100.00
4398;BME280;2213;49.720;7.296;2024-02-26T03:17:39;96081.84;;;6.53;100.00
4398;BME280;2213;49.720;7.296;2024-02-26T03:20:09;96081.06;;;6.53;100.00
4398;BME280;2213;49.720;7.296;2024-02-26T03:22:39;96079.84;;;6.55;100.00
4398;BME280;2213;49.720;7.296;2024-02-26T03:25:08;96077.47;;;6.54;100.00
4398;BME280;2213;49.720;7.296;2024-02-26T03:27:38;96078.69;;;6.51;100.00
4398;BME280;2213;49.720;7.296;2024-02-26T03:30:07;96077.09;;;6.50;100.00
4398;BME280;2213;49.720;7.296;2024-02-26T03:32:36;96086.09;;;6.48;100.00
4398;BME280;2213;49.720;7.296;2024-02-26T03:35:08;96080.66;;;6.49;100.00
4398;BME280;2213;49.720;7.296;2024-02-26T03:37:37;96081.44;;;6.56;100.00
4398;BME280;2213;49.720;7.296;2024-02-26T03:40:07;96078.25;;;6.54;100.00
4398;BME280;2213;49.720;7.296;2024-02-26T03:42:37;96080.06;;;6.54;100.00
4398;BME280;2213;49.720;7.296;2024-02-26T03:45:07;96076.28;;;6.50;100.00
4398;BME280;2213;49.720;7.296;2024-02-26T03:47:38;96073.72;;;6.43;100.00
4398;BME280;2213;49.720;7.296;2024-02-26T03:50:08;96069.91;;;6.46;100.00
4398;BME280;2213;49.720;7.296;2024-02-26T03:52:37;96076.13;;;6.45;100.00
4398;BME280;2213;49.720;7.296;2024-02-26T03:55:05;96069.97;;;6.39;100.00
4398;BME280;2213;49.720;7.296;2024-02-26T03:57:35;96069.97;;;6.39;100.00
4398;BME280;2213;49.720;7.296;2024-02-26T04:00:07;96071.56;;;6.40;100.00
4398;BME280;2213;49.720;7.296;2024-02-26T04:02:36;96061.59;;;6.37;100.00
4398;BME280;2213;49.720;7.296;2024-02-26T04:05:05;96067.53;;;6.44;100.00
4398;BME280;2213;49.720;7.296;2024-02-26T04:07:37;96057.72;;;6.46;100.00
4398;BME280;2213;49.720;7.296;2024-02-26T04:10:09;96058.34;;;6.48;100.00
4398;BME280;2213;49.720;7.296;2024-02-26T04:12:39;96065.94;;;6.43;100.00
4398;BME280;2213;49.720;7.296;2024-02-26T04:15:10;96058.75;;;6.45;100.00
4398;BME280;2213;49.720;7.296;2024-02-26T04:17:39;96058.91;;;6.50;100.00
4398;BME280;2213;49.720;7.296;2024-02-26T04:20:14;96055.88;;;6.53;100.00
4398;BME280;2213;49.720;7.296;2024-02-26T04:22:44;96060.94;;;6.48;100.00
4398;BME280;2213;49.720;7.296;2024-02-26T04:25:13;96057.13;;;6.51;100.00
4398;BME280;2213;49.720;7.296;2024-02-26T04:27:42;96065.28;;;6.54;100.00
4398;BME280;2213;49.720;7.296;2024-02-26T04:30:12;96073.06;;;6.54;100.00
4398;BME280;2213;49.720;7.296;2024-02-26T04:32:41;96068.88;;;6.53;100.00
4398;BME280;2213;49.720;7.296;2024-02-26T04:35:10;96063.91;;;6.52;100.00
4398;BME280;2213;49.720;7.296;2024-02-26T04:37:39;96071.09;;;6.50;100.00
4398;BME280;2213;49.720;7.296;2024-02-26T04:40:08;96064.69;;;6.52;100.00
4398;BME280;2213;49.720;7.296;2024-02-26T04:42:37;96062.09;;;6.52;100.00
4398;BME280;2213;49.720;7.296;2024-02-26T04:45:06;96077.09;;;6.50;100.00
4398;BME280;2213;49.720;7.296;2024-02-26T04:47:37;96081.09;;;6.46;100.00
4398;BME280;2213;49.720;7.296;2024-02-26T04:50:06;96078.88;;;6.50;100.00
4398;BME280;2213;49.720;7.296;2024-02-26T04:52:36;96078.03;;;6.56;100.00
4398;BME280;2213;49.720;7.296;2024-02-26T04:55:05;96068.66;;;6.55;100.00
4398;BME280;2213;49.720;7.296;2024-02-26T04:57:33;96076.84;;;6.58;100.00
4398;BME280;2213;49.720;7.296;2024-02-26T05:00:02;96078.41;;;6.59;100.00
4398;BME280;2213;49.720;7.296;2024-02-26T05:02:32;96086.63;;;6.56;100.00
4398;BME280;2213;49.720;7.296;2024-02-26T05:05:07;96084.44;;;6.53;100.00
4398;BME280;2213;49.720;7.296;2024-02-26T05:07:40;96093.41;;;6.57;100.00
4398;BME280;2213;49.720;7.296;2024-02-26T05:10:09;96086.19;;;6.59;100.00
4398;BME280;2213;49.720;7.296;2024-02-26T05:12:38;96087.22;;;6.58;100.00
4398;BME280;2213;49.720;7.296;2024-02-26T05:15:10;96085.19;;;6.61;100.00
4398;BME280;2213;49.720;7.296;2024-02-26T05:17:43;96093.22;;;6.59;100.00
4398;BME280;2213;49.720;7.296;2024-02-26T05:20:13;96091.38;;;6.59;100.00
4398;BME280;2213;49.720;7.296;2024-02-26T05:22:42;96093.59;;;6.63;100.00
4398;BME280;2213;49.720;7.296;2024-02-26T05:25:10;96093.59;;;6.63;100.00
4398;BME280;2213;49.720;7.296;2024-02-26T05:27:39;96088.41;;;6.63;100.00
4398;BME280;2213;49.720;7.296;2024-02-26T05:30:08;96092.56;;;6.64;100.00
4398;BME280;2213;49.720;7.296;2024-02-26T05:32:37;96095.97;;;6.64;100.00
4398;BME280;2213;49.720;7.296;2024-02-26T05:35:07;96094.78;;;6.60;100.00
4398;BME280;2213;49.720;7.296;2024-02-26T05:37:37;96096.19;;;6.63;100.00
4398;BME280;2213;49.720;7.296;2024-02-26T05:40:07;96086.56;;;6.63;100.00
4398;BME280;2213;49.720;7.296;2024-02-26T05:42:35;96103.38;;;6.61;100.00
4398;BME280;2213;49.720;7.296;2024-02-26T05:45:05;96097.19;;;6.62;100.00
4398;BME280;2213;49.720;7.296;2024-02-26T05:47:34;96104.75;;;6.63;100.00
4398;BME280;2213;49.720;7.296;2024-02-26T05:50:04;96101.38;;;6.63;100.00
4398;BME280;2213;49.720;7.296;2024-02-26T05:52:32;96107.75;;;6.60;100.00
4398;BME280;2213;49.720;7.296;2024-02-26T05:55:04;96106.56;;;6.63;100.00
4398;BME280;2213;49.720;7.296;2024-02-26T05:57:34;96106.16;;;6.66;100.00
4398;BME280;2213;49.720;7.296;2024-02-26T06:00:04;96110.31;;;6.67;100.00
4398;BME280;2213;49.720;7.296;2024-02-26T06:02:32;96108.75;;;6.66;100.00
4398;BME280;2213;49.720;7.296;2024-02-26T06:05:01;96109.53;;;6.66;100.00
4398;BME280;2213;49.720;7.296;2024-02-26T06:07:30;96110.69;;;6.70;100.00
4398;BME280;2213;49.720;7.296;2024-02-26T06:09:58;96112.91;;;6.67;100.00
4398;BME280;2213;49.720;7.296;2024-02-26T06:12:28;96127.13;;;6.64;100.00
4398;BME280;2213;49.720;7.296;2024-02-26T06:14:58;96121.94;;;6.64;100.00
4398;BME280;2213;49.720;7.296;2024-02-26T06:17:28;96119.56;;;6.63;100.00
4398;BME280;2213;49.720;7.296;2024-02-26T06:19:57;96120.31;;;6.63;100.00
4398;BME280;2213;49.720;7.296;2024-02-26T06:22:27;96127.34;;;6.63;100.00
4398;BME280;2213;49.720;7.296;2024-02-26T06:24:56;96128.34;;;6.62;100.00
4398;BME280;2213;49.720;7.296;2024-02-26T06:27:24;96128.34;;;6.62;100.00
4398;BME280;2213;49.720;7.296;2024-02-26T06:29:54;96130.94;;;6.62;100.00
4398;BME280;2213;49.720;7.296;2024-02-26T06:32:24;96130.72;;;6.63;100.00
4398;BME280;2213;49.720;7.296;2024-02-26T06:34:55;96127.34;;;6.63;100.00
4398;BME280;2213;49.720;7.296;2024-02-26T06:37:26;96134.72;;;6.66;100.00
4398;BME280;2213;49.720;7.296;2024-02-26T06:39:55;96138.50;;;6.70;100.00
4398;BME280;2213;49.720;7.296;2024-02-26T06:42:23;96138.88;;;6.67;100.00
4398;BME280;2213;49.720;7.296;2024-02-26T06:44:52;96147.28;;;6.69;100.00
4398;BME280;2213;49.720;7.296;2024-02-26T06:47:22;96147.06;;;6.70;100.00
4398;BME280;2213;49.720;7.296;2024-02-26T06:49:50;96141.66;;;6.72;100.00
4398;BME280;2213;49.720;7.296;2024-02-26T06:52:19;96145.25;;;6.71;100.00
4398;BME280;2213;49.720;7.296;2024-02-26T06:54:47;96149.28;;;6.67;100.00
4398;BME280;2213;49.720;7.296;2024-02-26T06:57:18;96148.88;;;6.70;100.00
4398;BME280;2213;49.720;7.296;2024-02-26T06:59:47;96152.06;;;6.72;100.00
4398;BME280;2213;49.720;7.296;2024-02-26T07:02:16;96154.22;;;6.75;100.00
4398;BME280;2213;49.720;7.296;2024-02-26T07:04:46;96156.03;;;6.74;100.00
4398;BME280;2213;49.720;7.296;2024-02-26T07:07:14;96158.41;;;6.76;100.00
4398;BME280;2213;49.720;7.296;2024-02-26T07:09:45;96167.97;;;6.82;100.00
4398;BME280;2213;49.720;7.296;2024-02-26T07:12:13;96167.97;;;6.82;100.00
4398;BME280;2213;49.720;7.296;2024-02-26T07:14:43;96178.72;;;6.85;100.00
4398;BME280;2213;49.720;7.296;2024-02-26T07:17:12;96175.72;;;6.88;100.00
4398;BME280;2213;49.720;7.296;2024-02-26T07:19:40;96175.66;;;6.95;100.00
4398;BME280;2213;49.720;7.296;2024-02-26T07:22:10;96177.88;;;6.91;100.00
4398;BME280;2213;49.720;7.296;2024-02-26T07:24:38;96186.09;;;6.88;100.00
4398;BME280;2213;49.720;7.296;2024-02-26T07:27:07;96190.50;;;6.88;100.00
4398;BME280;2213;49.720;7.296;2024-02-26T07:29:35;96187.91;;;6.88;100.00
4398;BME280;2213;49.720;7.296;2024-02-26T07:32:05;96184.50;;;6.94;100.00
4398;BME280;2213;49.720;7.296;2024-02-26T07:34:34;96184.69;;;6.92;100.00
4398;BME280;2213;49.720;7.296;2024-02-26T07:37:03;96194.47;;;6.97;100.00
4398;BME280;2213;49.720;7.296;2024-02-26T07:39:33;96196.44;;;6.95;100.00
4398;BME280;2213;49.720;7.296;2024-02-26T07:42:02;96195.44;;;6.96;100.00
4398;BME280;2213;49.720;7.296;2024-02-26T07:44:31;96195.88;;;6.93;100.00
4398;BME280;2213;49.720;7.296;2024-02-26T07:46:59;96203.66;;;6.93;100.00
4398;BME280;2213;49.720;7.296;2024-02-26T07:49:27;96209.25;;;6.96;100.00
4398;BME280;2213;49.720;7.296;2024-02-26T07:51:55;96213.81;;;7.01;100.00
4398;BME280;2213;49.720;7.296;2024-02-26T07:54:25;96215.41;;;7.02;100.00
4398;BME280;2213;49.720;7.296;2024-02-26T07:56:55;96216.00;;;7.04;100.00
4398;BME280;2213;49.720;7.296;2024-02-26T07:59:25;96215.41;;;7.02;100.00
4398;BME280;2213;49.720;7.296;2024-02-26T08:01:53;96225.78;;;7.02;100.00
4398;BME280;2213;49.720;7.296;2024-02-26T08:04:25;96227.44;;;6.96;100.00
4398;BME280;2213;49.720;7.296;2024-02-26T08:06:54;96222.00;;;6.98;100.00
4398;BME280;2213;49.720;7.296;2024-02-26T08:09:23;96227.78;;;7.06;100.00
4398;BME280;2213;49.720;7.296;2024-02-26T08:11:52;96234.94;;;7.11;100.00
4398;BME280;2213;49.720;7.296;2024-02-26T08:14:21;96226.53;;;7.09;100.00
4398;BME280;2213;49.720;7.296;2024-02-26T08:16:50;96237.75;;;7.09;100.00
4398;BME280;2213;49.720;7.296;2024-02-26T08:19:18;96235.50;;;7.13;100.00
4398;BME280;2213;49.720;7.296;2024-02-26T08:21:47;96239.34;;;7.11;100.00
4398;BME280;2213;49.720;7.296;2024-02-26T08:24:15;96238.91;;;7.14;100.00
4398;BME280;2213;49.720;7.296;2024-02-26T08:26:44;96242.69;;;7.18;100.00
4398;BME280;2213;49.720;7.296;2024-02-26T08:29:12;96242.88;;;7.16;100.00
4398;BME280;2213;49.720;7.296;2024-02-26T08:31:42;96239.28;;;7.17;100.00
4398;BME280;2213;49.720;7.296;2024-02-26T08:34:11;96239.06;;;7.19;100.00
4398;BME280;2213;49.720;7.296;2024-02-26T08:36:39;96240.84;;;7.25;100.00
4398;BME280;2213;49.720;7.296;2024-02-26T08:39:10;96244.25;;;7.25;100.00
4398;BME280;2213;49.720;7.296;2024-02-26T08:41:41;96245.25;;;7.24;100.00
4398;BME280;2213;49.720;7.296;2024-02-26T08:44:10;96238.03;;;7.26;100.00
4398;BME280;2213;49.720;7.296;2024-02-26T08:46:38;96244.41;;;7.30;100.00
4398;BME280;2213;49.720;7.296;2024-02-26T08:49:08;96255.97;;;7.34;100.00
4398;BME280;2213;49.720;7.296;2024-02-26T08:51:42;96252.56;;;7.34;100.00
4398;BME280;2213;49.720;7.296;2024-02-26T08:54:11;96252.56;;;7.34;100.00
4398;BME280;2213;49.720;7.296;2024-02-26T08:56:39;96262.41;;;7.32;100.00
4398;BME280;2213;49.720;7.296;2024-02-26T08:59:09;96259.56;;;7.33;100.00
4398;BME280;2213;49.720;7.296;2024-02-26T09:01:37;96257.16;;;7.38;100.00
4398;BME280;2213;49.720;7.296;2024-02-26T09:04:05;96251.09;;;7.44;100.00
4398;BME280;2213;49.720;7.296;2024-02-26T09:06:35;96249.88;;;7.47;100.00
4398;BME280;2213;49.720;7.296;2024-02-26T09:09:04;96259.91;;;7.43;100.00
4398;BME280;2213;49.720;7.296;2024-02-26T09:11:32;96256.28;;;7.44;100.00
4398;BME280;2213;49.720;7.296;2024-02-26T09:14:01;96261.44;;;7.51;100.00
4398;BME280;2213;49.720;7.296;2024-02-26T09:16:31;96257.00;;;7.58;100.00
4398;BME280;2213;49.720;7.296;2024-02-26T09:18:59;96257.38;;;7.62;100.00
4398;BME280;2213;49.720;7.296;2024-02-26T09:21:28;96264.16;;;7.63;100.00
4398;BME280;2213;49.720;7.296;2024-02-26T09:23:58;96262.50;;;7.68;100.00
4398;BME280;2213;49.720;7.296;2024-02-26T09:26:26;96271.13;;;7.69;100.00
4398;BME280;2213;49.720;7.296;2024-02-26T09:28:55;96276.13;;;7.70;100.00
4398;BME280;2213;49.720;7.296;2024-02-26T09:31:23;96278.72;;;7.70;100.00
4398;BME280;2213;49.720;7.296;2024-02-26T09:33:52;96281.09;;;7.72;100.00
4398;BME280;2213;49.720;7.296;2024-02-26T09:36:22;96286.91;;;7.74;100.00
4398;BME280;2213;49.720;7.296;2024-02-26T09:38:50;96291.50;;;7.72;100.00
4398;BME280;2213;49.720;7.296;2024-02-26T09:41:30;96293.09;;;7.73;100.00
4398;BME280;2213;49.720;7.296;2024-02-26T09:44:01;96302.91;;;7.71;100.00
4398;BME280;2213;49.720;7.296;2024-02-26T09:46:31;96302.50;;;7.74;100.00
4398;BME280;2213;49.720;7.296;2024-02-26T09:48:59;96295.69;;;7.73;100.00
4398;BME280;2213;49.720;7.296;2024-02-26T09:51:41;96311.06;;;7.74;100.00
4398;BME280;2213;49.720;7.296;2024-02-26T09:54:11;96316.09;;;7.76;100.00
4398;BME280;2213;49.720;7.296;2024-02-26T09:56:43;96308.66;;;7.79;100.00
4398;BME280;2213;49.720;7.296;2024-02-26T09:59:36;96309.88;;;7.77;100.00
4398;BME280;2213;49.720;7.296;2024-02-26T10:02:12;96309.88;;;7.77;100.00
4398;BME280;2213;49.720;7.296;2024-02-26T10:04:41;96321.47;;;7.81;100.00
4398;BME280;2213;49.720;7.296;2024-02-26T10:07:17;96334.25;;;7.82;100.00
4398;BME280;2213;49.720;7.296;2024-02-26T10:09:45;96332.88;;;7.80;100.00
4398;BME280;2213;49.720;7.296;2024-02-26T10:12:16;96340.44;;;7.81;100.00
4398;BME280;2213;49.720;7.296;2024-02-26T10:14:45;96333.25;;;7.83;100.00
4398;BME280;2213;49.720;7.296;2024-02-26T10:17:14;96337.22;;;7.86;100.00
4398;BME280;2213;49.720;7.296;2024-02-26T10:19:43;96332.19;;;7.91;100.00
4398;BME280;2213;49.720;7.296;2024-02-26T10:22:11;96332.75;;;7.93;100.00
4398;BME280;2213;49.720;7.296;2024-02-26T10:24:40;96339.56;;;7.94;100.00
4398;BME280;2213;49.720;7.296;2024-02-26T10:27:09;96343.97;;;7.93;100.00
4398;BME280;2213;49.720;7.296;2024-02-26T10:29:39;96343.59;;;7.90;100.00
4398;BME280;2213;49.720;7.296;2024-02-26T10:32:08;96340.78;;;7.91;100.00
4398;BME280;2213;49.720;7.296;2024-02-26T10:34:39;96341.75;;;7.97;100.00
4398;BME280;2213;49.720;7.296;2024-02-26T10:37:09;96334.75;;;7.97;100.00
4398;BME280;2213;49.720;7.296;2024-02-26T10:39:38;96343.97;;;7.93;100.00
4398;BME280;2213;49.720;7.296;2024-02-26T10:42:12;96333.56;;;7.93;100.00
4398;BME280;2213;49.720;7.296;2024-02-26T10:44:43;96346.72;;;7.98;100.00
4398;BME280;2213;49.720;7.296;2024-02-26T10:47:13;96349.69;;;8.02;100.00
4398;BME280;2213;49.720;7.296;2024-02-26T10:49:46;96365.09;;;8.03;100.00
4398;BME280;2213;49.720;7.296;2024-02-26T10:52:17;96363.06;;;8.05;100.00
4398;BME280;2213;49.720;7.296;2024-02-26T10:54:47;96365.47;;;8.07;100.00
4398;BME280;2213;49.720;7.296;2024-02-26T10:57:19;96359.28;;;8.08;100.00
4398;BME280;2213;49.720;7.296;2024-02-26T10:59:51;96356.31;;;8.04;100.00
4398;BME280;2213;49.720;7.296;2024-02-26T11:02:21;96360.28;;;8.07;100.00
4398;BME280;2213;49.720;7.296;2024-02-26T11:04:49;96371.63;;;8.13;100.00
4398;BME280;2213;49.720;7.296;2024-02-26T11:07:19;96375.84;;;8.14;100.00
4398;BME280;2213;49.720;7.296;2024-02-26T11:09:49;96378.00;;;8.17;100.00
4398;BME280;2213;49.720;7.296;2024-02-26T11:12:20;96382.41;;;8.16;100.00
4398;BME280;2213;49.720;7.296;2024-02-26T11:14:52;96374.59;;;8.16;100.00
4398;BME280;2213;49.720;7.296;2024-02-26T11:17:28;96375.41;;;8.17;100.00
4398;BME280;2213;49.720;7.296;2024-02-26T11:19:59;96382.59;;;8.21;100.00
4398;BME280;2213;49.720;7.296;2024-02-26T11:22:30;96385.34;;;8.26;100.00
4398;BME280;2213;49.720;7.296;2024-02-26T11:24:59;96396.97;;;8.30;100.00
4398;BME280;2213;49.720;7.296;2024-02-26T11:27:32;96398.13;;;8.34;100.00
4398;BME280;2213;49.720;7.296;2024-02-26T11:30:10;96391.53;;;8.32;100.00
4398;BME280;2213;49.720;7.296;2024-02-26T11:32:39;96390.53;;;8.33;100.00
4398;BME280;2213;49.720;7.296;2024-02-26T11:35:08;96391.69;;;8.37;100.00
4398;BME280;2213;49.720;7.296;2024-02-26T11:37:38;96399.31;;;8.38;100.00
4398;BME280;2213;49.720;7.296;2024-02-26T11:40:12;96396.91;;;8.37;100.00
4398;BME280;2213;49.720;7.296;2024-02-26T11:42:44;96400.69;;;8.41;100.00
4398;BME280;2213;49.720;7.296;2024-02-26T11:45:51;96395.63;;;8.46;100.00
4398;BME280;2213;49.720;7.296;2024-02-26T11:48:22;96399.25;;;8.45;100.00
4398;BME280;2213;49.720;7.296;2024-02-26T11:50:53;96394.03;;;8.45;100.00
4398;BME280;2213;49.720;7.296;2024-02-26T11:53:25;96394.59;;;8.47;100.00
4398;BME280;2213;49.720;7.296;2024-02-26T11:56:22;96396.56;;;8.51;100.00
4398;BME280;2213;49.720;7.296;2024-02-26T11:59:01;96400.56;;;8.54;100.00
4398;BME280;2213;49.720;7.296;2024-02-26T12:01:44;96403.16;;;8.54;100.00
4398;BME280;2213;49.720;7.296;2024-02-26T12:04:21;96413.81;;;8.52;100.00
4398;BME280;2213;49.720;7.296;2024-02-26T12:06:54;96409.59;;;8.51;100.00
4398;BME280;2213;49.720;7.296;2024-02-26T12:09:35;96422.06;;;8.49;100.00
4398;BME280;2213;49.720;7.296;2024-02-26T12:12:06;96418.03;;;8.47;100.00
4398;BME280;2213;49.720;7.296;2024-02-26T12:14:37;96412.06;;;8.46;100.00
4398;BME280;2213;49.720;7.296;2024-02-26T12:17:19;96405.25;;;8.45;100.00
4398;BME280;2213;49.720;7.296;2024-02-26T12:19:47;96405.44;;;8.44;100.00
4398;BME280;2213;49.720;7.296;2024-02-26T12:22:16;96415.66;;;8.45;100.00
4398;BME280;2213;49.720;7.296;2024-02-26T12:24:45;96409.47;;;8.46;100.00
4398;BME280;2213;49.720;7.296;2024-02-26T12:27:14;96422.84;;;8.50;100.00
4398;BME280;2213;49.720;7.296;2024-02-26T12:29:42;96415.25;;;8.48;100.00
4398;BME280;2213;49.720;7.296;2024-02-26T12:32:13;96412.84;;;8.47;100.00
4398;BME280;2213;49.720;7.296;2024-02-26T12:34:41;96418.66;;;8.49;100.00
4398;BME280;2213;49.720;7.296;2024-02-26T12:37:10;96413.19;;;8.50;100.00
4398;BME280;2213;49.720;7.296;2024-02-26T12:39:39;96419.59;;;8.54;100.00
4398;BME280;2213;49.720;7.296;2024-02-26T12:42:07;96425.03;;;8.53;100.00
4398;BME280;2213;49.720;7.296;2024-02-26T12:44:37;96426.41;;;8.55;100.00
4398;BME280;2213;49.720;7.296;2024-02-26T12:47:06;96432.84;;;8.53;100.00
4398;BME280;2213;49.720;7.296;2024-02-26T12:49:36;96437.25;;;8.52;100.00
4398;BME280;2213;49.720;7.296;2024-02-26T12:52:05;96434.84;;;8.51;100.00
4398;BME280;2213;49.720;7.296;2024-02-26T12:54:34;96438.84;;;8.53;100.00
4398;BME280;2213;49.720;7.296;2024-02-26T12:57:07;96443.19;;;8.59;100.00
4398;BME280;2213;49.720;7.296;2024-02-26T12:59:37;96438.41;;;8.56;100.00
4398;BME280;2213;49.720;7.296;2024-02-26T13:02:06;96437.13;;;8.66;100.00
4398;BME280;2213;49.720;7.296;2024-02-26T13:04:39;96444.50;;;8.69;100.00
4398;BME280;2213;49.720;7.296;2024-02-26T13:07:08;96448.72;;;8.70;100.00
4398;BME280;2213;49.720;7.296;2024-02-26T13:09:37;96449.66;;;8.75;100.00
4398;BME280;2213;49.720;7.296;2024-02-26T13:12:08;96444.63;;;8.80;100.00
4398;BME280;2213;49.720;7.296;2024-02-26T13:14:37;96448.97;;;8.86;100.00
4398;BME280;2213;49.720;7.296;2024-02-26T13:17:05;96451.94;;;8.90;100.00
4398;BME280;2213;49.720;7.296;2024-02-26T13:19:34;96460.13;;;8.93;100.00
4398;BME280;2213;49.720;7.296;2024-02-26T13:22:07;96464.47;;;8.99;100.00
4398;BME280;2213;49.720;7.296;2024-02-26T13:24:36;96468.53;;;8.95;100.00
4398;BME280;2213;49.720;7.296;2024-02-26T13:27:05;96472.50;;;8.98;100.00
4398;BME280;2213;49.720;7.296;2024-02-26T13:29:34;96473.69;;;9.02;100.00
4398;BME280;2213;49.720;7.296;2024-02-26T13:32:04;96474.81;;;9.06;100.00
4398;BME280;2213;49.720;7.296;2024-02-26T13:34:34;96479.63;;;9.09;100.00
4398;BME280;2213;49.720;7.296;2024-02-26T13:37:04;96476.78;;;9.10;100.00